Time;durP1;ratioP1;P1;durP2;ratioP2;P2;SDS_P1;SDS_P2;PMS_P1;PMS_P2;Temp;Humidity;BMP_temperature;BMP_pressure;BME280_temperature;BME280_humidity;BME280_pressure;Samples;Min_cycle;Max_cycle;Signal;HPM_P1;HPM_P2
2021/04/14 00:00:05;;;;;;;11.55;7.35;;;;;;;19.63;33.04;103228.78;4957675;28;20187;-78
2021/04/14 00:02:32;;;;;;;12.85;8.40;;;;;;;19.59;32.86;103223.03;4957894;28;20106;-78
2021/04/14 00:04:57;;;;;;;15.88;8.77;;;;;;;19.57;32.87;103230.03;4957745;28;20035;-78
2021/04/14 00:07:23;;;;;;;11.23;7.72;;;;;;;19.55;32.77;103232.25;4957610;28;20027;-78
2021/04/14 00:09:48;;;;;;;13.07;8.05;;;;;;;19.51;32.81;103221.00;4957707;28;20019;-77
2021/04/14 00:12:14;;;;;;;11.20;7.75;;;;;;;19.51;33.20;103234.03;4957505;28;20039;-77
2021/04/14 00:14:40;;;;;;;9.77;7.03;;;;;;;19.47;33.21;103231.06;4957350;29;20027;-77
2021/04/14 00:17:05;;;;;;;10.50;8.00;;;;;;;19.46;33.03;103226.66;4957549;29;20024;-77
2021/04/14 00:19:31;;;;;;;8.82;7.32;;;;;;;19.45;33.14;103229.75;4957333;28;20079;-77
2021/04/14 00:21:58;;;;;;;11.43;7.97;;;;;;;19.40;33.17;103227.91;4957500;28;20110;-77
2021/04/14 00:24:24;;;;;;;13.73;8.68;;;;;;;19.30;33.20;103226.19;4957551;28;20031;-77
2021/04/14 00:26:50;;;;;;;13.80;9.48;;;;;;;19.28;33.27;103222.91;4957360;28;20110;-78
2021/04/14 00:29:15;;;;;;;13.00;8.40;;;;;;;19.18;33.36;103225.91;4956059;29;20126;-78
2021/04/14 00:31:41;;;;;;;13.48;8.60;;;;;;;19.18;33.28;103225.91;4955315;29;20608;-78
2021/04/14 00:34:21;;;;;;;13.65;9.02;;;;;;;19.11;33.59;103223.56;4955311;29;20031;-78
2021/04/14 00:36:48;;;;;;;13.45;8.82;;;;;;;19.09;33.40;103225.00;4955607;28;20061;-78
2021/04/14 00:39:25;;;;;;;11.05;8.18;;;;;;;19.01;33.68;103218.25;4955899;28;20028;-78
2021/04/14 00:41:53;;;;;;;11.55;7.60;;;;;;;19.02;33.56;103217.13;4956475;28;20034;-78
2021/04/14 00:44:20;;;;;;;10.52;7.45;;;;;;;18.99;33.54;103222.47;4957083;28;20028;-78
2021/04/14 00:46:45;;;;;;;10.70;8.15;;;;;;;18.98;33.47;103213.34;4957077;28;20382;-77
2021/04/14 00:49:12;;;;;;;10.63;8.48;;;;;;;18.87;33.55;103222.16;4956993;28;20082;-77
2021/04/14 00:51:38;;;;;;;9.23;7.47;;;;;;;18.82;33.70;103217.56;4956861;28;20481;-78
2021/04/14 00:54:04;;;;;;;10.05;8.10;;;;;;;18.73;33.82;103213.88;4956834;28;20111;-77
2021/04/14 00:56:30;;;;;;;11.10;7.60;;;;;;;18.65;33.84;103215.38;4955530;28;20031;-77
2021/04/14 00:58:55;;;;;;;8.35;7.03;;;;;;;18.61;33.74;103221.84;4956056;28;20128;-77
2021/04/14 01:01:22;;;;;;;9.50;8.20;;;;;;;18.55;34.03;103221.13;4955754;28;20554;-78
2021/04/14 01:03:48;;;;;;;9.95;8.45;;;;;;;18.53;33.99;103220.63;4956568;28;20111;-78
2021/04/14 01:06:21;;;;;;;9.60;7.95;;;;;;;18.41;34.01;103217.53;4954094;29;20126;-78
2021/04/14 01:08:47;;;;;;;10.32;8.30;;;;;;;18.40;33.94;103218.66;4956726;28;20034;-78
2021/04/14 01:11:14;;;;;;;10.38;7.57;;;;;;;18.35;33.98;103214.03;4956561;28;20023;-77
2021/04/14 01:13:40;;;;;;;13.63;8.57;;;;;;;18.29;33.72;103213.34;4956522;28;20043;-77
2021/04/14 01:16:06;;;;;;;10.93;7.43;;;;;;;18.21;33.89;103216.81;4956518;28;20502;-77
2021/04/14 01:18:36;;;;;;;9.88;8.43;;;;;;;18.19;33.76;103219.03;4955127;29;20458;-77
2021/04/14 01:21:04;;;;;;;11.75;7.78;;;;;;;18.10;33.76;103209.81;4956520;28;20118;-77
2021/04/14 01:23:31;;;;;;;15.38;9.10;;;;;;;18.00;33.84;103207.22;4956337;28;20039;-77
2021/04/14 01:25:57;;;;;;;11.75;9.23;;;;;;;18.03;33.89;103206.63;4956160;28;20438;-77
2021/04/14 01:28:29;;;;;;;13.32;9.57;;;;;;;17.99;33.80;103211.13;4939071;29;20035;-77
2021/04/14 01:30:56;;;;;;;11.63;9.35;;;;;;;17.96;33.89;103214.47;4956220;28;20046;-77
2021/04/14 01:33:25;;;;;;;10.57;8.18;;;;;;;17.90;33.96;103224.81;4956073;28;20031;-77
2021/04/14 01:35:50;;;;;;;13.07;9.18;;;;;;;17.84;34.04;103216.94;4955961;29;20039;-77
2021/04/14 01:38:16;;;;;;;9.98;7.90;;;;;;;17.68;34.01;103219.91;4955801;28;20030;-77
2021/04/14 01:40:42;;;;;;;12.27;8.63;;;;;;;17.56;33.98;103219.53;4956109;28;20106;-77
2021/04/14 01:43:08;;;;;;;8.45;7.47;;;;;;;17.49;33.81;103216.34;4956024;28;20031;-77
2021/04/14 01:45:40;;;;;;;11.02;9.57;;;;;;;17.38;33.66;103221.22;4955853;29;20035;-77
2021/04/14 01:48:07;;;;;;;11.60;9.45;;;;;;;17.40;33.82;103220.91;4955657;28;20506;-77
2021/04/14 01:50:33;;;;;;;13.25;8.63;;;;;;;17.41;33.90;103217.00;4955746;28;20023;-77
2021/04/14 01:52:59;;;;;;;13.10;9.48;;;;;;;17.40;34.14;103218.13;4955021;28;20032;-78
2021/04/14 01:55:27;;;;;;;11.77;8.93;;;;;;;17.31;34.06;103208.88;4955845;28;20027;-78
2021/04/14 01:57:53;;;;;;;11.75;9.23;;;;;;;17.32;34.11;103211.34;4955962;28;20030;-77
2021/04/14 02:00:26;;;;;;;10.38;8.75;;;;;;;17.23;34.01;103210.38;4955522;28;20426;-77
2021/04/14 02:02:52;;;;;;;13.20;9.45;;;;;;;17.28;34.15;103212.22;4955611;28;20078;-78
2021/04/14 02:05:22;;;;;;;12.75;10.00;;;;;;;17.24;33.91;103206.50;4955440;28;20031;-78
2021/04/14 02:07:47;;;;;;;12.88;10.18;;;;;;;17.23;34.17;103213.16;4955474;28;20042;-78
2021/04/14 02:10:14;;;;;;;10.25;8.25;;;;;;;17.18;34.14;103214.03;4955383;28;20116;-77
2021/04/14 02:12:39;;;;;;;11.23;9.35;;;;;;;17.06;34.27;103216.38;4955379;28;20035;-77
2021/04/14 02:15:12;;;;;;;11.73;8.95;;;;;;;16.92;34.13;103221.00;4955442;28;20106;-77
2021/04/14 02:17:38;;;;;;;12.00;8.48;;;;;;;16.81;34.18;103213.97;4954800;28;20497;-77
2021/04/14 02:20:06;;;;;;;12.02;9.18;;;;;;;16.71;34.11;103217.69;4953948;29;20027;-77
2021/04/14 02:22:31;;;;;;;10.45;8.57;;;;;;;16.56;34.13;103221.41;4955217;28;20034;-77
2021/04/14 02:24:57;;;;;;;11.88;9.00;;;;;;;16.53;34.41;103215.66;4954729;28;20094;-78
2021/04/14 02:27:23;;;;;;;13.00;8.82;;;;;;;16.55;34.35;103228.06;4954676;28;20023;-77
2021/04/14 02:29:48;;;;;;;13.32;8.95;;;;;;;16.54;34.23;103220.88;4954399;28;20031;-78
2021/04/14 02:32:14;;;;;;;12.07;9.73;;;;;;;16.44;34.18;103226.50;4953626;29;20063;-77
2021/04/14 02:34:40;;;;;;;13.02;9.95;;;;;;;16.42;34.35;103231.50;4954883;29;20098;-77
2021/04/14 02:37:05;;;;;;;14.93;11.05;;;;;;;16.42;34.38;103226.00;4955158;29;20110;-77
2021/04/14 02:39:31;;;;;;;12.60;10.82;;;;;;;16.44;34.37;103225.69;4953611;29;20078;-77
2021/04/14 02:41:56;;;;;;;13.32;9.60;;;;;;;16.40;34.52;103224.63;4954953;28;20078;-78
2021/04/14 02:44:22;;;;;;;13.27;9.38;;;;;;;16.30;34.23;103228.31;4955015;28;20023;-77
2021/04/14 02:46:48;;;;;;;14.85;10.90;;;;;;;16.27;34.24;103228.91;4954952;28;20090;-77
2021/04/14 02:49:13;;;;;;;17.02;10.23;;;;;;;16.27;34.48;103237.19;4954979;28;20093;-77
2021/04/14 02:51:39;;;;;;;15.95;11.50;;;;;;;16.20;34.55;103233.94;4954751;28;20062;-77
2021/04/14 02:54:05;;;;;;;11.85;9.75;;;;;;;16.23;34.42;103241.63;4954776;28;20034;-77
2021/04/14 02:56:30;;;;;;;12.43;9.32;;;;;;;16.21;34.63;103230.06;4954118;28;20542;-77
2021/04/14 02:58:56;;;;;;;12.50;10.27;;;;;;;16.23;34.54;103230.59;4954117;29;20471;-77
2021/04/14 03:01:22;;;;;;;12.27;9.98;;;;;;;16.26;34.62;103233.59;4954363;28;20047;-77
2021/04/14 03:03:47;;;;;;;15.10;10.52;;;;;;;16.28;34.46;103228.63;4953827;28;20030;-77
2021/04/14 03:06:13;;;;;;;13.18;9.73;;;;;;;16.19;34.87;103219.34;4954506;28;20031;-77
2021/04/14 03:08:39;;;;;;;13.48;9.75;;;;;;;16.18;34.93;103223.22;4953367;28;20166;-77
2021/04/14 03:11:04;;;;;;;11.77;9.43;;;;;;;16.19;35.02;103226.78;4954620;28;20027;-77
2021/04/14 03:13:30;;;;;;;14.63;9.60;;;;;;;16.23;34.80;103228.66;4954375;28;20039;-77
2021/04/14 03:15:56;;;;;;;13.50;9.90;;;;;;;16.09;34.90;103223.00;4954568;28;20038;-77
2021/04/14 03:18:21;;;;;;;10.20;9.10;;;;;;;15.97;35.05;103224.50;4953372;29;20582;-77
2021/04/14 03:20:47;;;;;;;13.13;9.80;;;;;;;15.99;34.97;103216.75;4954172;28;20422;-77
2021/04/14 03:23:16;;;;;;;16.48;10.73;;;;;;;15.91;34.85;103215.44;4954340;28;20390;-77
2021/04/14 03:25:42;;;;;;;14.48;10.93;;;;;;;15.96;35.10;103220.94;4954486;28;20042;-77
2021/04/14 03:28:08;;;;;;;16.85;10.82;;;;;;;15.92;35.09;103219.03;4954360;28;20506;-77
2021/04/14 03:30:34;;;;;;;12.95;10.10;;;;;;;15.93;35.02;103218.72;4954378;28;20027;-77
2021/04/14 03:33:00;;;;;;;15.18;11.35;;;;;;;15.74;35.45;103223.31;4954203;28;20031;-77
2021/04/14 03:35:27;;;;;;;11.57;10.07;;;;;;;15.58;35.38;103219.00;4954291;28;20019;-77
2021/04/14 03:37:53;;;;;;;11.65;10.35;;;;;;;15.67;35.21;103215.38;4953125;28;20020;-77
2021/04/14 03:40:19;;;;;;;11.23;9.80;;;;;;;15.65;35.33;103216.78;4954220;28;20041;-78
2021/04/14 03:42:45;;;;;;;13.90;10.15;;;;;;;15.57;35.59;103214.59;4953000;29;20475;-77
2021/04/14 03:45:18;;;;;;;16.23;10.23;;;;;;;15.52;35.33;103220.97;4952422;29;20427;-77
2021/04/14 03:47:43;;;;;;;13.27;9.68;;;;;;;15.48;35.37;103215.19;4952746;29;20038;-77
2021/04/14 03:50:13;;;;;;;14.95;10.02;;;;;;;15.40;35.25;103210.28;4953050;29;20023;-77
2021/04/14 03:52:39;;;;;;;13.50;9.10;;;;;;;15.38;35.35;103212.53;4954174;28;20031;-77
2021/04/14 03:55:07;;;;;;;14.57;10.70;;;;;;;15.33;35.28;103212.53;4954147;28;20102;-77
2021/04/14 03:57:33;;;;;;;13.95;11.38;;;;;;;15.26;35.40;103215.63;4954167;28;20030;-77
2021/04/14 03:59:59;;;;;;;11.55;8.73;;;;;;;15.22;35.28;103213.72;4953985;28;20040;-77
2021/04/14 04:02:24;;;;;;;15.90;10.50;;;;;;;15.14;35.57;103211.56;4954168;29;20111;-77
2021/04/14 04:04:50;;;;;;;11.75;9.50;;;;;;;15.14;35.32;103212.41;4954061;28;20031;-77
2021/04/14 04:07:15;;;;;;;12.05;9.57;;;;;;;15.15;35.46;103221.47;4952984;29;20501;-77
2021/04/14 04:09:41;;;;;;;15.00;9.60;;;;;;;15.17;34.98;103214.56;4953124;28;20061;-77
2021/04/14 04:12:09;;;;;;;17.77;10.55;;;;;;;15.03;35.30;103220.97;4952212;29;20086;-77
2021/04/14 04:14:49;;;;;;;12.55;10.02;;;;;;;15.01;35.41;103220.44;4938282;29;20032;-77
2021/04/14 04:17:16;;;;;;;14.38;10.38;;;;;;;15.03;35.18;103220.97;4957691;28;20026;-77
2021/04/14 04:19:42;;;;;;;14.52;10.90;;;;;;;14.91;35.43;103219.41;4957543;28;20038;-77
2021/04/14 04:22:09;;;;;;;20.98;10.18;;;;;;;14.91;35.29;103222.16;4957506;28;20386;-77
2021/04/14 04:24:35;;;;;;;14.85;10.85;;;;;;;14.99;35.22;103216.06;4957566;28;20023;-77
2021/04/14 04:27:01;;;;;;;13.57;11.05;;;;;;;14.98;35.27;103216.34;4957359;28;20339;-77
2021/04/14 04:29:27;;;;;;;11.70;8.70;;;;;;;14.95;35.33;103222.41;4957336;28;20028;-78
2021/04/14 04:31:53;;;;;;;15.07;11.02;;;;;;;14.94;35.29;103226.25;4956831;28;20042;-77
2021/04/14 04:34:18;;;;;;;11.48;8.88;;;;;;;14.98;35.21;103219.09;4957063;28;20038;-77
2021/04/14 04:36:44;;;;;;;22.13;12.05;;;;;;;14.84;35.36;103223.56;4955961;28;20474;-77
2021/04/14 04:39:10;;;;;;;17.85;10.30;;;;;;;14.83;35.46;103228.25;4957166;29;20038;-77
2021/04/14 04:41:36;;;;;;;13.27;10.38;;;;;;;14.88;35.49;103230.94;4957056;28;20074;-77
2021/04/14 04:44:01;;;;;;;20.38;11.73;;;;;;;14.85;35.32;103223.28;4957030;28;20130;-78
2021/04/14 04:46:27;;;;;;;15.35;9.70;;;;;;;14.75;35.58;103226.06;4957111;29;20534;-76
2021/04/14 04:48:53;;;;;;;16.30;10.30;;;;;;;14.80;35.53;103234.28;4956833;29;20398;-77
2021/04/14 04:51:18;;;;;;;18.00;10.23;;;;;;;14.72;35.52;103232.13;4956858;29;20787;-77
2021/04/14 04:53:44;;;;;;;14.32;10.13;;;;;;;14.63;35.56;103229.13;4956667;28;20122;-77
2021/04/14 04:56:09;;;;;;;19.88;10.35;;;;;;;14.64;35.73;103221.69;4956612;28;20035;-77
2021/04/14 04:58:35;;;;;;;16.88;11.07;;;;;;;14.66;35.56;103227.72;4956513;28;20028;-77
2021/04/14 05:01:00;;;;;;;22.52;10.75;;;;;;;14.61;35.89;103225.03;4956200;28;20498;-77
2021/04/14 05:03:31;;;;;;;21.50;11.70;;;;;;;14.66;35.76;103233.25;4955380;28;20064;-77
2021/04/14 05:05:58;;;;;;;16.15;10.68;;;;;;;14.73;35.65;103231.00;4956750;28;20106;-77
2021/04/14 05:08:23;;;;;;;14.20;10.13;;;;;;;14.70;35.99;103239.84;4956738;28;20027;-77
2021/04/14 05:10:49;;;;;;;31.10;15.32;;;;;;;14.55;36.11;103237.97;4956544;28;20551;-77
2021/04/14 05:13:15;;;;;;;29.02;12.65;;;;;;;14.57;36.24;103238.50;4956669;28;20047;-77
2021/04/14 05:15:41;;;;;;;30.27;13.93;;;;;;;14.64;36.20;103238.22;4956554;28;20027;-77
2021/04/14 05:18:09;;;;;;;23.77;13.27;;;;;;;14.60;36.30;103242.63;4956195;28;20506;-77
2021/04/14 05:20:35;;;;;;;29.48;13.43;;;;;;;14.70;36.13;103242.59;4956457;28;20394;-77
2021/04/14 05:23:01;;;;;;;24.27;11.65;;;;;;;14.76;36.26;103244.22;4955512;28;20525;-77
2021/04/14 05:25:30;;;;;;;20.77;11.10;;;;;;;14.70;36.30;103245.34;4954690;28;20110;-77
2021/04/14 05:27:59;;;;;;;22.90;12.93;;;;;;;14.77;36.08;103253.31;4956524;28;20051;-77
2021/04/14 05:30:25;;;;;;;19.50;11.18;;;;;;;14.86;36.06;103252.44;4956416;28;20450;-77
2021/04/14 05:32:51;;;;;;;18.70;11.30;;;;;;;14.88;36.06;103252.16;4956179;29;20039;-77
2021/04/14 05:35:17;;;;;;;30.70;13.75;;;;;;;14.81;36.16;103255.22;4956201;28;20032;-77
2021/04/14 05:37:43;;;;;;;23.63;12.80;;;;;;;14.77;36.20;103245.88;4956122;28;20037;-77
2021/04/14 05:40:09;;;;;;;37.42;13.25;;;;;;;14.70;36.42;103257.19;4955959;28;20110;-76
2021/04/14 05:42:42;;;;;;;24.70;12.77;;;;;;;14.74;36.18;103259.38;4955831;28;20031;-77
2021/04/14 05:45:10;;;;;;;23.25;12.00;;;;;;;14.87;36.08;103259.59;4958579;28;20098;-74
2021/04/14 05:47:37;;;;;;;21.73;11.68;;;;;;;14.81;36.32;103263.50;4965032;28;20027;-74
2021/04/14 05:50:05;;;;;;;26.58;12.10;;;;;;;14.79;36.42;103265.69;4974437;28;20050;-74
2021/04/14 05:52:31;;;;;;;29.17;13.20;;;;;;;14.81;36.47;103271.75;4974364;28;20066;-74
2021/04/14 05:54:57;;;;;;;27.92;11.98;;;;;;;14.93;36.46;103271.41;4975157;28;20057;-75
2021/04/14 05:57:22;;;;;;;27.00;12.38;;;;;;;14.80;36.62;103272.81;4974990;28;20023;-75
2021/04/14 05:59:48;;;;;;;18.75;10.43;;;;;;;14.85;36.38;103278.31;4947455;28;20046;-75
2021/04/14 06:02:14;;;;;;;22.95;11.02;;;;;;;14.59;37.10;103276.75;4939202;28;20028;-78
2021/04/14 06:04:40;;;;;;;19.75;10.20;;;;;;;14.93;36.37;103276.91;4936719;29;20089;-75
2021/04/14 06:07:05;;;;;;;16.13;10.18;;;;;;;14.86;36.48;103277.22;4937458;28;20032;-75
2021/04/14 06:09:31;;;;;;;26.15;12.60;;;;;;;14.78;36.65;103286.06;4925813;29;20489;-74
2021/04/14 06:11:56;;;;;;;21.52;11.57;;;;;;;14.80;36.53;103283.84;4938460;29;20454;-74
2021/04/14 06:14:22;;;;;;;27.90;11.40;;;;;;;14.77;36.75;103284.41;4937694;28;20062;-75
2021/04/14 06:16:49;;;;;;;17.10;11.20;;;;;;;14.91;36.32;103288.22;4936543;28;20498;-75
2021/04/14 06:19:14;;;;;;;15.60;9.98;;;;;;;14.90;36.62;103289.31;4936906;28;20502;-75
2021/04/14 06:21:40;;;;;;;22.48;12.90;;;;;;;14.94;36.62;103287.66;4938190;28;20038;-75
2021/04/14 06:24:06;;;;;;;21.17;10.13;;;;;;;15.05;36.49;103293.13;4938942;28;20121;-74
2021/04/14 06:29:04;;;;;;;21.63;11.85;;;;;;;14.97;36.88;103298.13;4932485;28;20109;-75
2021/04/14 06:31:31;;;;;;;30.13;12.15;;;;;;;15.06;36.75;103297.53;4935817;28;20129;-75
2021/04/14 06:34:11;;;;;;;15.63;11.02;;;;;;;15.32;36.45;103298.22;4920439;29;20515;-74
2021/04/14 06:36:36;;;;;;;18.90;11.45;;;;;;;15.31;36.60;103305.66;4930423;28;20134;-76
2021/04/14 06:39:03;;;;;;;40.38;14.05;;;;;;;15.31;36.55;103307.59;4937356;28;20242;-75
2021/04/14 06:42:20;;;;;;;31.10;13.45;;;;;;;15.27;37.15;103310.94;4938903;28;20090;-75
2021/04/14 06:45:07;;;;;;;18.65;10.38;;;;;;;15.42;37.13;103309.22;4932506;29;20024;-75
2021/04/14 06:47:56;;;;;;;29.08;10.70;;;;;;;15.64;36.65;103317.94;4938772;28;20027;-75
2021/04/14 06:50:41;;;;;;;28.20;11.73;;;;;;;15.63;36.95;103320.97;4935970;28;20058;-75
2021/04/14 06:53:27;;;;;;;14.48;10.45;;;;;;;15.68;36.77;103315.44;4917627;29;20028;-75
2021/04/14 06:56:17;;;;;;;26.80;13.65;;;;;;;15.66;37.26;103307.44;4919631;29;20039;-75
2021/04/14 06:58:48;;;;;;;;;;;;;;;15.60;37.60;103316.81;4919187;28;20046;-75
2021/04/14 07:01:19;;;;;;;20.40;10.80;;;;;;;15.96;36.60;103311.94;4949705;28;20282;-74
2021/04/14 07:04:03;;;;;;;28.50;12.60;;;;;;;16.11;36.78;103321.19;4943841;28;20123;-74
2021/04/14 07:06:30;;;;;;;17.63;11.32;;;;;;;16.11;36.67;103324.78;4954540;28;20035;-74
2021/04/14 07:09:04;;;;;;;26.77;12.48;;;;;;;16.14;37.23;103315.09;4954632;28;20035;-74
2021/04/14 07:11:31;;;;;;;43.67;14.52;;;;;;;16.21;37.16;103318.34;4954564;28;20038;-74
2021/04/14 07:13:57;;;;;;;56.90;16.95;;;;;;;16.38;37.16;103313.22;4940287;28;20036;-73
2021/04/14 07:16:54;;;;;;;40.33;16.08;;;;;;;16.54;37.26;103311.94;4942288;29;20031;-72
2021/04/14 07:19:49;;;;;;;43.33;16.35;;;;;;;16.52;37.90;103319.72;4943746;28;20501;-74
2021/04/14 07:22:25;;;;;;;31.42;13.68;;;;;;;16.68;38.11;103314.84;4956764;28;20030;-76
2021/04/14 07:24:58;;;;;;;66.70;16.88;;;;;;;16.81;38.07;103316.97;4973769;28;20110;-74
2021/04/14 07:27:59;;;;;;;67.07;17.42;;;;;;;16.90;38.26;103315.19;4973671;28;20027;-74
2021/04/14 07:30:42;;;;;;;44.03;16.67;;;;;;;17.28;37.49;103314.47;4973395;28;20517;-74
2021/04/14 07:33:55;;;;;;;57.25;21.13;;;;;;;17.37;37.95;103310.72;4972339;28;20385;-74
2021/04/14 07:36:21;;;;;;;52.38;20.00;;;;;;;17.63;37.66;103311.22;4896962;29;20126;-75
2021/04/14 07:39:11;;;;;;;60.20;23.63;;;;;;;17.77;38.21;103311.31;4929496;28;20570;-75
2021/04/14 07:41:50;;;;;;;109.22;32.88;;;;;;;17.86;38.37;103309.53;4937898;29;20034;-75
2021/04/14 07:44:42;;;;;;;81.00;39.13;;;;;;;18.05;38.14;103305.91;4936882;28;20023;-75
2021/04/14 07:47:11;;;;;;;34.72;21.27;;;;;;;18.40;38.26;103301.69;4942607;28;20105;-74
2021/04/14 07:49:37;;;;;;;31.43;16.20;;;;;;;18.56;38.50;103305.81;4948392;28;20024;-76
2021/04/14 07:52:06;;;;;;;34.38;18.50;;;;;;;18.42;39.34;103304.97;4946803;28;20768;-74
2021/04/14 07:54:46;;;;;;;58.60;28.58;;;;;;;18.74;39.07;103301.34;4952152;28;20490;-78
2021/04/14 07:57:12;;;;;;;28.67;17.05;;;;;;;18.84;38.91;103299.22;4956227;28;20069;-77
2021/04/14 07:59:43;;;;;;;20.20;15.25;;;;;;;18.96;38.75;103300.66;4945910;28;20024;-76
2021/04/14 08:02:11;;;;;;;19.38;14.15;;;;;;;18.93;39.28;103298.50;4949818;28;20043;-79
2021/04/14 08:04:41;;;;;;;23.65;15.80;;;;;;;18.91;39.47;103298.00;4948592;28;20051;-81
2021/04/14 08:07:24;;;;;;;25.83;16.05;;;;;;;19.10;39.39;103307.00;4948083;29;20030;-80
2021/04/14 08:10:15;;;;;;;23.05;12.68;;;;;;;19.04;39.34;103299.91;4946572;29;20031;-79
2021/04/14 08:13:02;;;;;;;21.90;14.23;;;;;;;19.13;39.15;103304.44;4947751;29;20067;-80
2021/04/14 08:15:41;;;;;;;20.05;13.63;;;;;;;19.40;38.81;103302.75;4948726;29;20036;-75
2021/04/14 08:18:13;;;;;;;23.35;12.93;;;;;;;19.40;38.83;103300.81;4947461;29;20588;-76
2021/04/14 08:20:40;;;;;;;21.02;14.25;;;;;;;19.61;38.50;103301.19;4944546;29;20126;-75
2021/04/14 08:23:14;;;;;;;17.55;13.88;;;;;;;19.71;38.29;103308.44;4945568;29;20031;-75
2021/04/14 08:25:47;;;;;;;64.57;22.90;;;;;;;19.76;38.32;103305.56;4945624;28;20039;-75
2021/04/14 08:28:13;;;;;;;30.50;14.13;;;;;;;19.82;38.21;103309.88;4945097;28;20051;-79
2021/04/14 08:30:38;;;;;;;21.45;13.30;;;;;;;20.02;37.99;103302.16;4950551;28;20070;-79
2021/04/14 08:33:15;;;;;;;29.30;14.32;;;;;;;20.00;38.20;103310.81;4945952;29;20076;-78
2021/04/14 08:35:48;;;;;;;34.25;15.35;;;;;;;20.05;38.09;103316.25;4945755;29;20529;-80
2021/04/14 08:38:29;;;;;;;19.10;11.20;;;;;;;20.03;38.06;103309.38;4945468;28;20672;-75
2021/04/14 08:40:58;;;;;;;21.23;13.02;;;;;;;19.90;38.13;103314.66;4947391;29;20023;-75
2021/04/14 08:43:32;;;;;;;20.10;12.85;;;;;;;20.24;37.58;103310.47;4952404;28;20050;-76
2021/04/14 08:46:09;;;;;;;15.57;11.70;;;;;;;20.23;37.76;103308.84;4959961;28;20027;-86
2021/04/14 08:48:36;;;;;;;36.05;15.27;;;;;;;20.18;38.10;103318.13;4963114;28;20037;-84
2021/04/14 08:51:06;;;;;;;19.15;11.70;;;;;;;20.38;37.76;103319.56;4975154;28;20169;-84
2021/04/14 08:53:36;;;;;;;39.72;14.88;;;;;;;20.14;38.52;103316.31;4970250;28;20031;-84
2021/04/14 08:56:02;;;;;;;22.90;12.65;;;;;;;20.57;37.92;103319.38;4948031;28;20036;-85
2021/04/14 08:58:28;;;;;;;15.52;11.30;;;;;;;20.52;37.93;103316.72;4947708;28;20513;-85
2021/04/14 09:00:54;;;;;;;18.60;12.63;;;;;;;20.56;38.15;103316.94;4953812;28;20097;-85
2021/04/14 09:03:26;;;;;;;16.90;12.80;;;;;;;20.77;37.98;103323.53;4946169;28;20097;-84
2021/04/14 09:05:52;;;;;;;16.92;11.63;;;;;;;20.46;38.50;103318.81;4946181;28;20062;-85
2021/04/14 09:08:26;;;;;;;24.10;13.30;;;;;;;20.51;38.53;103320.66;4954746;28;20032;-85
2021/04/14 09:10:58;;;;;;;21.70;13.07;;;;;;;20.29;39.20;103324.25;4948379;28;20028;-84
2021/04/14 09:13:32;;;;;;;32.53;15.20;;;;;;;20.80;38.63;103330.44;4958749;28;20043;-84
2021/04/14 09:16:01;;;;;;;22.15;13.38;;;;;;;21.05;37.90;103329.69;4955308;29;20070;-85
2021/04/14 09:18:37;;;;;;;42.25;20.35;;;;;;;20.99;38.14;103325.41;4955456;29;20434;-84
2021/04/14 09:21:23;;;;;;;20.67;15.88;;;;;;;21.21;37.37;103328.09;4942866;29;20028;-84
2021/04/14 09:23:54;;;;;;;19.38;15.50;;;;;;;21.36;37.23;103326.84;4946089;29;20031;-84
2021/04/14 09:26:38;;;;;;;26.17;16.25;;;;;;;21.39;36.59;103317.06;4946638;28;20028;-84
2021/04/14 09:29:26;;;;;;;22.65;15.45;;;;;;;21.40;36.83;103330.66;4949769;29;20027;-83
2021/04/14 09:31:55;;;;;;;17.85;13.40;;;;;;;21.56;36.66;103329.03;4943453;28;20046;-83
2021/04/14 09:34:36;;;;;;;24.13;15.13;;;;;;;21.62;36.46;103326.09;4943604;28;20028;-83
2021/04/14 09:37:27;;;;;;;17.98;14.07;;;;;;;21.72;36.05;103328.53;4954977;28;20028;-82
2021/04/14 09:40:04;;;;;;;34.15;17.67;;;;;;;21.83;35.90;103324.28;4954808;28;20109;-83
2021/04/14 09:42:43;;;;;;;20.55;12.70;;;;;;;21.68;36.30;103328.38;4950504;28;20530;-85
2021/04/14 09:45:29;;;;;;;31.15;16.20;;;;;;;21.88;35.72;103326.91;4967458;28;20031;-85
2021/04/14 09:47:56;;;;;;;24.73;12.43;;;;;;;22.16;35.37;103327.41;4955412;28;20028;-84
2021/04/14 09:50:28;;;;;;;15.68;11.75;;;;;;;22.17;35.45;103326.25;4954244;28;20532;-84
2021/04/14 09:52:58;;;;;;;22.05;13.10;;;;;;;22.14;35.23;103333.31;4954833;29;20034;-84
2021/04/14 09:55:35;;;;;;;17.35;12.38;;;;;;;22.06;35.23;103334.09;4955862;28;20110;-84
2021/04/14 09:58:29;;;;;;;27.42;14.52;;;;;;;22.13;35.68;103330.84;4954398;29;20058;-83
2021/04/14 10:01:03;;;;;;;33.60;15.13;;;;;;;22.23;35.33;103326.91;4943355;28;20105;-83
2021/04/14 10:03:33;;;;;;;30.65;14.10;;;;;;;22.31;35.22;103326.06;4952716;28;20027;-83
2021/04/14 10:06:13;;;;;;;17.20;10.23;;;;;;;22.18;34.92;103332.63;4948725;28;20060;-83
2021/04/14 10:08:42;;;;;;;13.13;6.40;;;;;;;22.43;34.57;103328.97;4950490;28;20036;-83
2021/04/14 10:11:07;;;;;;;16.23;10.75;;;;;;;22.43;34.38;103331.75;4940963;29;20491;-84
2021/04/14 10:13:33;;;;;;;14.43;8.88;;;;;;;22.51;34.38;103332.88;4945533;28;20034;-83
2021/04/14 10:16:01;;;;;;;45.38;17.25;;;;;;;22.73;33.94;103326.25;4950698;28;20236;-82
2021/04/14 10:18:36;;;;;;;41.78;16.45;;;;;;;22.54;34.20;103329.44;4955176;28;20389;-83
2021/04/14 10:21:24;;;;;;;12.75;6.10;;;;;;;22.54;34.10;103332.22;4947332;29;20031;-83
2021/04/14 10:24:03;;;;;;;18.98;8.75;;;;;;;22.77;33.76;103328.06;4941159;29;20081;-83
2021/04/14 10:26:34;;;;;;;20.85;7.97;;;;;;;22.59;34.02;103332.03;4949764;28;20034;-82
2021/04/14 10:29:01;;;;;;;20.88;8.13;;;;;;;22.76;33.93;103333.97;4942630;28;20026;-81
2021/04/14 10:31:30;;;;;;;9.85;6.72;;;;;;;22.55;33.52;103337.47;4946645;28;20020;-83
2021/04/14 10:34:12;;;;;;;12.55;7.53;;;;;;;22.48;33.87;103328.81;4947249;28;20501;-82
2021/04/14 10:36:43;;;;;;;71.78;18.42;;;;;;;22.55;34.12;103329.13;4942013;29;20115;-83
2021/04/14 10:39:11;;;;;;;19.08;10.40;;;;;;;22.48;34.17;103334.38;4945313;28;20089;-83
2021/04/14 10:41:38;;;;;;;14.65;8.95;;;;;;;22.68;34.08;103303.00;4943563;28;20398;-83
2021/04/14 10:44:25;;;;;;;16.92;8.82;;;;;;;22.71;33.95;103323.81;4958278;28;20033;-84
2021/04/14 10:46:58;;;;;;;51.10;11.40;;;;;;;22.81;33.83;103330.97;4943983;29;20024;-83
2021/04/14 10:49:29;;;;;;;13.93;7.50;;;;;;;22.74;33.67;103323.13;4944831;28;20050;-83
2021/04/14 10:52:00;;;;;;;9.73;5.82;;;;;;;22.53;33.44;103328.63;4942491;28;20020;-84
2021/04/14 10:54:31;;;;;;;7.63;4.55;;;;;;;22.63;33.20;103328.25;4937709;29;20027;-84
2021/04/14 10:57:06;;;;;;;6.50;2.80;;;;;;;22.68;33.15;103330.88;4942164;29;20036;-83
2021/04/14 10:59:33;;;;;;;6.88;2.60;;;;;;;22.90;33.14;103331.81;4944269;29;20027;-83
2021/04/14 11:01:59;;;;;;;23.42;4.38;;;;;;;22.77;33.03;103339.19;4966110;28;20054;-83
2021/04/14 11:04:41;;;;;;;7.00;1.85;;;;;;;22.75;32.65;103335.94;4967019;28;20458;-83
2021/04/14 11:07:10;;;;;;;6.78;1.30;;;;;;;22.84;32.51;103333.94;4937413;29;20099;-83
2021/04/14 11:09:39;;;;;;;6.60;1.65;;;;;;;22.94;32.68;103330.78;4942303;29;20513;-82
2021/04/14 11:12:10;;;;;;;21.88;2.65;;;;;;;22.92;32.34;103337.84;4942676;28;20563;-83
2021/04/14 11:14:41;;;;;;;4.47;1.17;;;;;;;22.90;32.30;103342.97;4946527;28;20525;-82
2021/04/14 11:17:14;;;;;;;4.60;1.95;;;;;;;23.00;32.15;103336.19;4942100;28;20030;-84
2021/04/14 11:19:44;;;;;;;8.65;2.20;;;;;;;23.17;32.06;103330.50;4964636;28;20039;-83
2021/04/14 11:22:11;;;;;;;11.52;2.00;;;;;;;23.12;32.23;103341.84;4946481;28;20038;-83
2021/04/14 11:24:49;;;;;;;7.05;1.52;;;;;;;23.18;31.94;103332.13;4941419;29;20478;-83
2021/04/14 11:27:22;;;;;;;4.82;1.63;;;;;;;23.46;31.39;103335.25;4947165;28;20482;-84
2021/04/14 11:29:48;;;;;;;6.18;1.42;;;;;;;23.31;31.59;103333.03;4943376;29;20834;-83